sensor_id;sensor_type;location;lat;lon;timestamp;P1;durP1;ratioP1;P2;durP2;ratioP2
40967;SDS011;57377;45.130;6.038;2023-03-18T00:00:30;6.93;;;3.35;;
40967;SDS011;57377;45.130;6.038;2023-03-18T00:05:22;3.88;;;2.10;;
40967;SDS011;57377;45.130;6.038;2023-03-18T00:07:47;5.47;;;1.77;;
40967;SDS011;57377;45.130;6.038;2023-03-18T00:10:14;3.80;;;1.63;;
40967;SDS011;57377;45.130;6.038;2023-03-18T00:12:41;2.35;;;1.52;;
40967;SDS011;57377;45.130;6.038;2023-03-18T00:15:07;6.22;;;1.90;;
40967;SDS011;57377;45.130;6.038;2023-03-18T00:17:34;10.88;;;4.55;;
40967;SDS011;57377;45.130;6.038;2023-03-18T00:20:02;12.27;;;4.50;;
40967;SDS011;57377;45.130;6.038;2023-03-18T00:22:31;25.38;;;9.18;;
40967;SDS011;57377;45.130;6.038;2023-03-18T00:25:01;11.05;;;4.60;;
40967;SDS011;57377;45.130;6.038;2023-03-18T00:27:28;5.38;;;1.85;;
40967;SDS011;57377;45.130;6.038;2023-03-18T00:29:54;7.28;;;1.70;;
40967;SDS011;57377;45.130;6.038;2023-03-18T00:32:20;8.38;;;3.50;;
40967;SDS011;57377;45.130;6.038;2023-03-18T00:34:46;25.92;;;12.40;;
40967;SDS011;57377;45.130;6.038;2023-03-18T00:37:12;26.60;;;10.55;;
40967;SDS011;57377;45.130;6.038;2023-03-18T00:39:43;30.02;;;14.20;;
40967;SDS011;57377;45.130;6.038;2023-03-18T00:42:10;20.98;;;9.25;;
40967;SDS011;57377;45.130;6.038;2023-03-18T00:44:36;10.35;;;4.82;;
40967;SDS011;57377;45.130;6.038;2023-03-18T00:47:04;8.93;;;3.63;;
40967;SDS011;57377;45.130;6.038;2023-03-18T00:49:29;12.50;;;2.67;;
40967;SDS011;57377;45.130;6.038;2023-03-18T00:51:55;7.68;;;2.42;;
40967;SDS011;57377;45.130;6.038;2023-03-18T00:54:20;21.40;;;9.50;;
40967;SDS011;57377;45.130;6.038;2023-03-18T00:56:46;31.40;;;12.98;;
40967;SDS011;57377;45.130;6.038;2023-03-18T00:59:12;3.83;;;1.90;;
40967;SDS011;57377;45.130;6.038;2023-03-18T01:01:38;6.38;;;2.72;;
40967;SDS011;57377;45.130;6.038;2023-03-18T01:04:04;3.40;;;1.58;;
40967;SDS011;57377;45.130;6.038;2023-03-18T01:06:31;3.33;;;1.40;;
40967;SDS011;57377;45.130;6.038;2023-03-18T01:11:25;2.67;;;1.30;;
40967;SDS011;57377;45.130;6.038;2023-03-18T01:13:51;6.95;;;2.58;;
40967;SDS011;57377;45.130;6.038;2023-03-18T01:16:17;6.15;;;2.42;;
40967;SDS011;57377;45.130;6.038;2023-03-18T01:18:43;4.38;;;1.58;;
40967;SDS011;57377;45.130;6.038;2023-03-18T01:21:08;3.22;;;1.52;;
40967;SDS011;57377;45.130;6.038;2023-03-18T01:23:34;5.35;;;1.60;;
40967;SDS011;57377;45.130;6.038;2023-03-18T01:26:01;5.33;;;1.00;;
40967;SDS011;57377;45.130;6.038;2023-03-18T01:28:27;8.73;;;1.88;;
40967;SDS011;57377;45.130;6.038;2023-03-18T01:30:53;6.18;;;2.80;;
40967;SDS011;57377;45.130;6.038;2023-03-18T01:33:19;13.43;;;6.57;;
40967;SDS011;57377;45.130;6.038;2023-03-18T01:35:45;6.40;;;3.40;;
40967;SDS011;57377;45.130;6.038;2023-03-18T01:38:18;13.15;;;5.07;;
40967;SDS011;57377;45.130;6.038;2023-03-18T01:40:44;18.38;;;8.70;;
40967;SDS011;57377;45.130;6.038;2023-03-18T01:45:35;11.48;;;2.67;;
40967;SDS011;57377;45.130;6.038;2023-03-18T01:48:00;7.53;;;1.55;;
40967;SDS011;57377;45.130;6.038;2023-03-18T01:50:28;7.40;;;1.40;;
40967;SDS011;57377;45.130;6.038;2023-03-18T01:52:57;8.27;;;4.30;;
40967;SDS011;57377;45.130;6.038;2023-03-18T01:55:27;9.77;;;4.75;;
40967;SDS011;57377;45.130;6.038;2023-03-18T01:57:55;23.70;;;12.98;;
40967;SDS011;57377;45.130;6.038;2023-03-18T02:00:21;11.93;;;6.82;;
40967;SDS011;57377;45.130;6.038;2023-03-18T02:02:47;7.38;;;3.70;;
40967;SDS011;57377;45.130;6.038;2023-03-18T02:05:16;5.53;;;2.95;;
40967;SDS011;57377;45.130;6.038;2023-03-18T02:07:44;8.55;;;3.67;;
40967;SDS011;57377;45.130;6.038;2023-03-18T02:10:14;2.45;;;1.40;;
40967;SDS011;57377;45.130;6.038;2023-03-18T02:12:43;2.05;;;1.40;;
40967;SDS011;57377;45.130;6.038;2023-03-18T02:15:17;6.30;;;1.25;;
40967;SDS011;57377;45.130;6.038;2023-03-18T02:17:47;2.67;;;1.80;;
40967;SDS011;57377;45.130;6.038;2023-03-18T02:20:25;6.57;;;2.00;;
40967;SDS011;57377;45.130;6.038;2023-03-18T02:22:56;2.50;;;1.00;;
40967;SDS011;57377;45.130;6.038;2023-03-18T02:25:52;4.05;;;1.85;;
40967;SDS011;57377;45.130;6.038;2023-03-18T02:28:26;2.65;;;1.45;;
40967;SDS011;57377;45.130;6.038;2023-03-18T02:30:55;9.93;;;2.70;;
40967;SDS011;57377;45.130;6.038;2023-03-18T02:33:23;5.32;;;1.23;;
40967;SDS011;57377;45.130;6.038;2023-03-18T02:35:56;3.60;;;1.40;;
40967;SDS011;57377;45.130;6.038;2023-03-18T02:38:27;4.70;;;1.40;;
40967;SDS011;57377;45.130;6.038;2023-03-18T02:40:52;3.00;;;1.30;;
40967;SDS011;57377;45.130;6.038;2023-03-18T02:43:20;5.00;;;1.30;;
40967;SDS011;57377;45.130;6.038;2023-03-18T02:48:37;2.58;;;1.20;;
40967;SDS011;57377;45.130;6.038;2023-03-18T02:51:06;2.10;;;1.13;;
40967;SDS011;57377;45.130;6.038;2023-03-18T02:53:33;1.67;;;1.00;;
40967;SDS011;57377;45.130;6.038;2023-03-18T02:55:59;2.83;;;1.33;;
40967;SDS011;57377;45.130;6.038;2023-03-18T02:58:25;3.90;;;1.40;;
40967;SDS011;57377;45.130;6.038;2023-03-18T03:00:51;4.03;;;3.08;;
40967;SDS011;57377;45.130;6.038;2023-03-18T03:03:16;2.88;;;1.73;;
40967;SDS011;57377;45.130;6.038;2023-03-18T03:05:42;3.42;;;1.23;;
40967;SDS011;57377;45.130;6.038;2023-03-18T03:08:07;3.10;;;1.50;;
40967;SDS011;57377;45.130;6.038;2023-03-18T03:10:33;4.00;;;1.60;;
40967;SDS011;57377;45.130;6.038;2023-03-18T03:12:59;5.90;;;1.73;;
40967;SDS011;57377;45.130;6.038;2023-03-18T03:15:24;3.97;;;2.15;;
40967;SDS011;57377;45.130;6.038;2023-03-18T03:17:50;1.67;;;0.70;;
40967;SDS011;57377;45.130;6.038;2023-03-18T03:20:17;3.53;;;1.67;;
40967;SDS011;57377;45.130;6.038;2023-03-18T03:22:43;14.52;;;6.35;;
40967;SDS011;57377;45.130;6.038;2023-03-18T03:25:09;8.23;;;5.30;;
40967;SDS011;57377;45.130;6.038;2023-03-18T03:27:35;18.60;;;4.60;;
40967;SDS011;57377;45.130;6.038;2023-03-18T03:30:02;4.13;;;2.03;;
40967;SDS011;57377;45.130;6.038;2023-03-18T03:32:29;5.22;;;3.25;;
40967;SDS011;57377;45.130;6.038;2023-03-18T03:34:55;5.53;;;3.60;;
40967;SDS011;57377;45.130;6.038;2023-03-18T03:37:21;3.60;;;2.50;;
40967;SDS011;57377;45.130;6.038;2023-03-18T03:39:46;7.68;;;2.78;;
40967;SDS011;57377;45.130;6.038;2023-03-18T03:42:13;3.33;;;2.10;;
40967;SDS011;57377;45.130;6.038;2023-03-18T03:44:38;3.78;;;1.60;;
40967;SDS011;57377;45.130;6.038;2023-03-18T03:47:04;4.35;;;1.30;;
40967;SDS011;57377;45.130;6.038;2023-03-18T03:49:31;2.57;;;1.60;;
40967;SDS011;57377;45.130;6.038;2023-03-18T03:51:57;4.85;;;1.90;;
40967;SDS011;57377;45.130;6.038;2023-03-18T03:54:22;2.80;;;1.35;;
40967;SDS011;57377;45.130;6.038;2023-03-18T03:56:49;8.27;;;1.75;;
40967;SDS011;57377;45.130;6.038;2023-03-18T03:59:15;3.55;;;1.98;;
40967;SDS011;57377;45.130;6.038;2023-03-18T04:01:41;5.82;;;1.80;;
40967;SDS011;57377;45.130;6.038;2023-03-18T04:04:06;5.05;;;1.13;;
40967;SDS011;57377;45.130;6.038;2023-03-18T04:06:31;3.38;;;1.20;;
40967;SDS011;57377;45.130;6.038;2023-03-18T04:08:57;5.00;;;1.42;;
40967;SDS011;57377;45.130;6.038;2023-03-18T04:11:22;4.18;;;1.30;;
40967;SDS011;57377;45.130;6.038;2023-03-18T04:13:48;2.25;;;0.95;;
40967;SDS011;57377;45.130;6.038;2023-03-18T04:16:13;2.40;;;1.13;;
40967;SDS011;57377;45.130;6.038;2023-03-18T04:18:40;7.50;;;1.35;;
40967;SDS011;57377;45.130;6.038;2023-03-18T04:21:06;6.03;;;1.40;;
40967;SDS011;57377;45.130;6.038;2023-03-18T04:23:32;2.88;;;1.00;;
40967;SDS011;57377;45.130;6.038;2023-03-18T04:25:58;3.88;;;1.02;;
40967;SDS011;57377;45.130;6.038;2023-03-18T04:28:23;4.22;;;1.13;;
40967;SDS011;57377;45.130;6.038;2023-03-18T04:30:48;5.63;;;1.00;;
40967;SDS011;57377;45.130;6.038;2023-03-18T04:33:14;6.05;;;1.98;;
40967;SDS011;57377;45.130;6.038;2023-03-18T04:35:40;3.60;;;1.20;;
40967;SDS011;57377;45.130;6.038;2023-03-18T04:38:09;2.88;;;1.00;;
40967;SDS011;57377;45.130;6.038;2023-03-18T04:40:34;2.85;;;1.13;;
40967;SDS011;57377;45.130;6.038;2023-03-18T04:43:00;1.30;;;0.82;;
40967;SDS011;57377;45.130;6.038;2023-03-18T04:45:25;3.78;;;1.60;;
40967;SDS011;57377;45.130;6.038;2023-03-18T04:47:52;2.55;;;1.48;;
40967;SDS011;57377;45.130;6.038;2023-03-18T04:50:18;6.32;;;1.50;;
40967;SDS011;57377;45.130;6.038;2023-03-18T04:52:44;2.47;;;1.60;;
40967;SDS011;57377;45.130;6.038;2023-03-18T04:55:12;1.73;;;1.23;;
40967;SDS011;57377;45.130;6.038;2023-03-18T04:57:40;4.07;;;1.60;;
40967;SDS011;57377;45.130;6.038;2023-03-18T05:00:09;3.63;;;1.67;;
40967;SDS011;57377;45.130;6.038;2023-03-18T05:02:36;6.03;;;1.48;;
40967;SDS011;57377;45.130;6.038;2023-03-18T05:05:02;2.33;;;1.33;;
40967;SDS011;57377;45.130;6.038;2023-03-18T05:07:28;5.18;;;2.80;;
40967;SDS011;57377;45.130;6.038;2023-03-18T05:09:53;3.95;;;1.60;;
40967;SDS011;57377;45.130;6.038;2023-03-18T05:12:19;4.82;;;2.78;;
40967;SDS011;57377;45.130;6.038;2023-03-18T05:14:44;4.43;;;2.20;;
40967;SDS011;57377;45.130;6.038;2023-03-18T05:17:10;5.57;;;1.52;;
40967;SDS011;57377;45.130;6.038;2023-03-18T05:19:44;3.22;;;1.73;;
40967;SDS011;57377;45.130;6.038;2023-03-18T05:22:11;2.65;;;1.30;;
40967;SDS011;57377;45.130;6.038;2023-03-18T05:24:41;2.95;;;1.48;;
40967;SDS011;57377;45.130;6.038;2023-03-18T05:27:07;7.10;;;1.40;;
40967;SDS011;57377;45.130;6.038;2023-03-18T05:32:00;7.05;;;2.90;;
40967;SDS011;57377;45.130;6.038;2023-03-18T05:34:26;5.78;;;1.45;;
40967;SDS011;57377;45.130;6.038;2023-03-18T05:36:52;2.33;;;1.00;;
40967;SDS011;57377;45.130;6.038;2023-03-18T05:39:17;6.80;;;1.27;;
40967;SDS011;57377;45.130;6.038;2023-03-18T05:41:42;1.98;;;1.00;;
40967;SDS011;57377;45.130;6.038;2023-03-18T05:44:08;8.77;;;1.50;;
40967;SDS011;57377;45.130;6.038;2023-03-18T05:46:34;1.85;;;0.93;;
40967;SDS011;57377;45.130;6.038;2023-03-18T05:48:59;2.60;;;1.17;;
40967;SDS011;57377;45.130;6.038;2023-03-18T05:51:24;6.22;;;1.30;;
40967;SDS011;57377;45.130;6.038;2023-03-18T05:53:50;1.83;;;1.10;;
40967;SDS011;57377;45.130;6.038;2023-03-18T05:56:16;2.75;;;1.10;;
40967;SDS011;57377;45.130;6.038;2023-03-18T05:58:42;5.40;;;1.30;;
40967;SDS011;57377;45.130;6.038;2023-03-18T06:01:07;4.25;;;1.30;;
40967;SDS011;57377;45.130;6.038;2023-03-18T06:03:33;2.88;;;1.60;;
40967;SDS011;57377;45.130;6.038;2023-03-18T06:05:59;4.10;;;1.30;;
40967;SDS011;57377;45.130;6.038;2023-03-18T06:08:25;4.60;;;1.23;;
40967;SDS011;57377;45.130;6.038;2023-03-18T06:10:51;2.22;;;1.27;;
40967;SDS011;57377;45.130;6.038;2023-03-18T06:13:17;3.20;;;1.60;;
40967;SDS011;57377;45.130;6.038;2023-03-18T06:15:42;4.72;;;1.23;;
40967;SDS011;57377;45.130;6.038;2023-03-18T06:18:08;2.58;;;1.23;;
40967;SDS011;57377;45.130;6.038;2023-03-18T06:20:34;3.40;;;0.93;;
40967;SDS011;57377;45.130;6.038;2023-03-18T06:23:00;10.25;;;1.77;;
40967;SDS011;57377;45.130;6.038;2023-03-18T06:25:26;3.05;;;1.15;;
40967;SDS011;57377;45.130;6.038;2023-03-18T06:27:51;3.88;;;1.17;;
40967;SDS011;57377;45.130;6.038;2023-03-18T06:30:17;3.65;;;1.48;;
40967;SDS011;57377;45.130;6.038;2023-03-18T06:32:43;3.88;;;1.48;;
40967;SDS011;57377;45.130;6.038;2023-03-18T06:35:09;2.05;;;1.17;;
40967;SDS011;57377;45.130;6.038;2023-03-18T06:37:36;9.02;;;1.92;;
40967;SDS011;57377;45.130;6.038;2023-03-18T06:40:02;3.77;;;1.23;;
40967;SDS011;57377;45.130;6.038;2023-03-18T06:42:29;4.22;;;1.58;;
40967;SDS011;57377;45.130;6.038;2023-03-18T06:44:55;5.40;;;1.70;;
40967;SDS011;57377;45.130;6.038;2023-03-18T06:47:21;3.80;;;1.35;;
40967;SDS011;57377;45.130;6.038;2023-03-18T06:49:47;8.60;;;1.63;;
40967;SDS011;57377;45.130;6.038;2023-03-18T06:52:13;5.15;;;1.88;;
40967;SDS011;57377;45.130;6.038;2023-03-18T06:54:39;7.20;;;1.73;;
40967;SDS011;57377;45.130;6.038;2023-03-18T06:57:05;3.67;;;1.60;;
40967;SDS011;57377;45.130;6.038;2023-03-18T06:59:31;6.75;;;1.70;;
40967;SDS011;57377;45.130;6.038;2023-03-18T07:01:57;9.27;;;1.48;;
40967;SDS011;57377;45.130;6.038;2023-03-18T07:04:22;5.55;;;1.63;;
40967;SDS011;57377;45.130;6.038;2023-03-18T07:06:48;4.13;;;1.88;;
40967;SDS011;57377;45.130;6.038;2023-03-18T07:09:14;6.03;;;1.55;;
40967;SDS011;57377;45.130;6.038;2023-03-18T07:11:40;2.33;;;1.17;;
40967;SDS011;57377;45.130;6.038;2023-03-18T07:14:06;5.00;;;1.27;;
40967;SDS011;57377;45.130;6.038;2023-03-18T07:16:31;3.05;;;1.40;;
40967;SDS011;57377;45.130;6.038;2023-03-18T07:18:57;3.10;;;1.35;;
40967;SDS011;57377;45.130;6.038;2023-03-18T07:21:23;3.45;;;1.83;;
40967;SDS011;57377;45.130;6.038;2023-03-18T07:23:49;3.63;;;1.42;;
40967;SDS011;57377;45.130;6.038;2023-03-18T07:26:16;6.23;;;2.03;;
40967;SDS011;57377;45.130;6.038;2023-03-18T07:28:41;6.43;;;2.22;;
40967;SDS011;57377;45.130;6.038;2023-03-18T07:31:07;3.60;;;1.50;;
40967;SDS011;57377;45.130;6.038;2023-03-18T07:33:32;2.95;;;1.40;;
40967;SDS011;57377;45.130;6.038;2023-03-18T07:35:58;6.32;;;1.75;;
40967;SDS011;57377;45.130;6.038;2023-03-18T07:38:24;4.00;;;1.38;;
40967;SDS011;57377;45.130;6.038;2023-03-18T07:40:49;3.53;;;1.63;;
40967;SDS011;57377;45.130;6.038;2023-03-18T07:43:15;4.07;;;1.65;;
40967;SDS011;57377;45.130;6.038;2023-03-18T07:45:41;3.88;;;1.35;;
40967;SDS011;57377;45.130;6.038;2023-03-18T07:48:07;4.20;;;1.80;;
40967;SDS011;57377;45.130;6.038;2023-03-18T07:50:32;6.32;;;2.90;;
40967;SDS011;57377;45.130;6.038;2023-03-18T07:52:58;5.43;;;2.55;;
40967;SDS011;57377;45.130;6.038;2023-03-18T07:55:23;3.60;;;1.55;;
40967;SDS011;57377;45.130;6.038;2023-03-18T07:57:49;2.17;;;1.42;;
40967;SDS011;57377;45.130;6.038;2023-03-18T08:00:15;6.32;;;2.35;;
40967;SDS011;57377;45.130;6.038;2023-03-18T08:02:40;8.70;;;3.10;;
40967;SDS011;57377;45.130;6.038;2023-03-18T08:05:06;10.38;;;2.92;;
40967;SDS011;57377;45.130;6.038;2023-03-18T08:07:32;12.98;;;4.55;;
40967;SDS011;57377;45.130;6.038;2023-03-18T08:09:58;9.47;;;4.50;;
40967;SDS011;57377;45.130;6.038;2023-03-18T08:12:24;10.48;;;2.80;;
40967;SDS011;57377;45.130;6.038;2023-03-18T08:14:50;4.13;;;2.50;;
40967;SDS011;57377;45.130;6.038;2023-03-18T08:17:15;4.47;;;2.10;;
40967;SDS011;57377;45.130;6.038;2023-03-18T08:19:41;6.45;;;1.58;;
40967;SDS011;57377;45.130;6.038;2023-03-18T08:22:07;4.82;;;1.95;;
40967;SDS011;57377;45.130;6.038;2023-03-18T08:24:34;2.80;;;1.67;;
40967;SDS011;57377;45.130;6.038;2023-03-18T08:27:01;3.88;;;1.50;;
40967;SDS011;57377;45.130;6.038;2023-03-18T08:29:26;4.10;;;1.50;;
40967;SDS011;57377;45.130;6.038;2023-03-18T08:31:52;5.10;;;1.60;;
40967;SDS011;57377;45.130;6.038;2023-03-18T08:34:18;3.97;;;1.63;;
40967;SDS011;57377;45.130;6.038;2023-03-18T08:36:43;3.55;;;1.50;;
40967;SDS011;57377;45.130;6.038;2023-03-18T08:39:09;2.40;;;1.45;;
40967;SDS011;57377;45.130;6.038;2023-03-18T08:41:35;4.32;;;1.35;;
40967;SDS011;57377;45.130;6.038;2023-03-18T08:44:01;4.05;;;1.80;;
40967;SDS011;57377;45.130;6.038;2023-03-18T08:46:29;6.60;;;2.17;;
40967;SDS011;57377;45.130;6.038;2023-03-18T08:48:55;10.73;;;1.50;;
40967;SDS011;57377;45.130;6.038;2023-03-18T08:51:20;2.10;;;1.20;;
40967;SDS011;57377;45.130;6.038;2023-03-18T08:53:46;3.83;;;1.35;;
40967;SDS011;57377;45.130;6.038;2023-03-18T08:56:12;6.50;;;1.60;;
40967;SDS011;57377;45.130;6.038;2023-03-18T08:58:39;2.85;;;1.35;;
40967;SDS011;57377;45.130;6.038;2023-03-18T09:01:05;3.25;;;1.40;;
40967;SDS011;57377;45.130;6.038;2023-03-18T09:03:31;2.47;;;1.20;;
40967;SDS011;57377;45.130;6.038;2023-03-18T09:05:58;3.25;;;1.63;;
40967;SDS011;57377;45.130;6.038;2023-03-18T09:08:24;6.00;;;1.38;;
40967;SDS011;57377;45.130;6.038;2023-03-18T09:10:50;3.10;;;1.35;;
40967;SDS011;57377;45.130;6.038;2023-03-18T09:13:17;3.28;;;1.90;;
40967;SDS011;57377;45.130;6.038;2023-03-18T09:15:43;3.53;;;1.33;;
40967;SDS011;57377;45.130;6.038;2023-03-18T09:18:09;2.50;;;1.60;;
40967;SDS011;57377;45.130;6.038;2023-03-18T09:20:34;3.28;;;1.00;;
40967;SDS011;57377;45.130;6.038;2023-03-18T09:22:59;2.15;;;1.30;;
40967;SDS011;57377;45.130;6.038;2023-03-18T09:25:25;3.15;;;1.48;;
40967;SDS011;57377;45.130;6.038;2023-03-18T09:27:51;2.47;;;1.30;;
40967;SDS011;57377;45.130;6.038;2023-03-18T09:30:17;2.88;;;1.10;;
40967;SDS011;57377;45.130;6.038;2023-03-18T09:32:42;2.25;;;1.33;;
40967;SDS011;57377;45.130;6.038;2023-03-18T09:35:08;3.45;;;1.15;;
40967;SDS011;57377;45.130;6.038;2023-03-18T09:37:35;3.10;;;1.52;;
40967;SDS011;57377;45.130;6.038;2023-03-18T09:40:01;2.80;;;1.20;;
40967;SDS011;57377;45.130;6.038;2023-03-18T09:53:21;4.97;;;1.17;;
40967;SDS011;57377;45.130;6.038;2023-03-18T09:55:52;3.95;;;1.27;;
40967;SDS011;57377;45.130;6.038;2023-03-18T10:00:56;3.95;;;1.30;;
40967;SDS011;57377;45.130;6.038;2023-03-18T10:03:33;5.45;;;1.88;;
40967;SDS011;57377;45.130;6.038;2023-03-18T10:06:05;3.05;;;1.50;;
40967;SDS011;57377;45.130;6.038;2023-03-18T10:11:23;5.55;;;1.80;;
40967;SDS011;57377;45.130;6.038;2023-03-18T10:19:50;2.25;;;1.48;;
40967;SDS011;57377;45.130;6.038;2023-03-18T10:30:18;5.63;;;1.40;;
40967;SDS011;57377;45.130;6.038;2023-03-18T10:33:13;10.35;;;2.50;;
40967;SDS011;57377;45.130;6.038;2023-03-18T10:35:50;10.05;;;2.40;;
40967;SDS011;57377;45.130;6.038;2023-03-18T10:38:32;2.60;;;1.40;;
40967;SDS011;57377;45.130;6.038;2023-03-18T10:41:00;8.52;;;1.85;;
40967;SDS011;57377;45.130;6.038;2023-03-18T10:43:28;5.75;;;1.70;;
40967;SDS011;57377;45.130;6.038;2023-03-18T10:46:14;4.20;;;1.83;;
40967;SDS011;57377;45.130;6.038;2023-03-18T10:48:41;6.90;;;1.95;;
40967;SDS011;57377;45.130;6.038;2023-03-18T10:54:07;4.78;;;2.58;;
40967;SDS011;57377;45.130;6.038;2023-03-18T10:56:39;3.50;;;1.75;;
40967;SDS011;57377;45.130;6.038;2023-03-18T10:59:10;5.00;;;1.92;;
40967;SDS011;57377;45.130;6.038;2023-03-18T11:01:39;5.60;;;1.67;;
40967;SDS011;57377;45.130;6.038;2023-03-18T11:09:10;5.70;;;2.15;;
40967;SDS011;57377;45.130;6.038;2023-03-18T11:11:46;5.22;;;2.22;;
40967;SDS011;57377;45.130;6.038;2023-03-18T11:14:20;6.25;;;2.00;;
40967;SDS011;57377;45.130;6.038;2023-03-18T11:16:47;6.90;;;2.28;;
40967;SDS011;57377;45.130;6.038;2023-03-18T11:19:39;7.80;;;2.20;;
40967;SDS011;57377;45.130;6.038;2023-03-18T11:24:58;10.02;;;2.13;;
40967;SDS011;57377;45.130;6.038;2023-03-18T11:27:51;5.28;;;1.92;;
40967;SDS011;57377;45.130;6.038;2023-03-18T11:32:52;7.22;;;2.08;;
40967;SDS011;57377;45.130;6.038;2023-03-18T11:35:22;5.30;;;2.63;;
40967;SDS011;57377;45.130;6.038;2023-03-18T11:37:49;5.15;;;2.22;;
40967;SDS011;57377;45.130;6.038;2023-03-18T11:40:24;4.10;;;2.00;;
40967;SDS011;57377;45.130;6.038;2023-03-18T11:43:02;6.50;;;2.37;;
40967;SDS011;57377;45.130;6.038;2023-03-18T11:48:35;7.75;;;2.20;;
40967;SDS011;57377;45.130;6.038;2023-03-18T11:51:10;5.80;;;2.63;;
40967;SDS011;57377;45.130;6.038;2023-03-18T12:05:38;6.72;;;2.50;;
40967;SDS011;57377;45.130;6.038;2023-03-18T12:10:59;6.20;;;2.45;;
40967;SDS011;57377;45.130;6.038;2023-03-18T12:13:58;6.57;;;2.33;;
40967;SDS011;57377;45.130;6.038;2023-03-18T12:22:06;9.05;;;2.83;;
40967;SDS011;57377;45.130;6.038;2023-03-18T12:33:17;6.13;;;2.90;;
40967;SDS011;57377;45.130;6.038;2023-03-18T12:44:22;8.73;;;2.83;;
40967;SDS011;57377;45.130;6.038;2023-03-18T12:47:03;9.45;;;3.10;;
40967;SDS011;57377;45.130;6.038;2023-03-18T12:49:37;7.53;;;3.28;;
40967;SDS011;57377;45.130;6.038;2023-03-18T12:52:08;13.25;;;3.08;;
40967;SDS011;57377;45.130;6.038;2023-03-18T12:54:40;7.82;;;3.50;;
40967;SDS011;57377;45.130;6.038;2023-03-18T13:00:19;6.13;;;3.17;;
40967;SDS011;57377;45.130;6.038;2023-03-18T13:05:34;13.98;;;3.83;;
40967;SDS011;57377;45.130;6.038;2023-03-18T13:08:05;7.03;;;3.67;;
40967;SDS011;57377;45.130;6.038;2023-03-18T13:10:42;7.93;;;3.30;;
40967;SDS011;57377;45.130;6.038;2023-03-18T13:13:13;10.43;;;3.70;;
40967;SDS011;57377;45.130;6.038;2023-03-18T13:15:41;6.00;;;3.33;;
40967;SDS011;57377;45.130;6.038;2023-03-18T13:18:20;7.78;;;3.70;;
40967;SDS011;57377;45.130;6.038;2023-03-18T13:20:51;5.57;;;3.33;;
40967;SDS011;57377;45.130;6.038;2023-03-18T13:42:41;8.90;;;4.07;;
40967;SDS011;57377;45.130;6.038;2023-03-18T13:45:43;11.20;;;3.87;;
40967;SDS011;57377;45.130;6.038;2023-03-18T13:48:06;14.50;;;4.68;;
40967;SDS011;57377;45.130;6.038;2023-03-18T13:50:37;11.15;;;4.97;;
40967;SDS011;57377;45.130;6.038;2023-03-18T13:53:05;12.35;;;5.32;;
40967;SDS011;57377;45.130;6.038;2023-03-18T13:56:04;11.18;;;5.07;;
40967;SDS011;57377;45.130;6.038;2023-03-18T13:58:34;15.38;;;5.50;;
40967;SDS011;57377;45.130;6.038;2023-03-18T14:06:45;10.07;;;5.13;;
40967;SDS011;57377;45.130;6.038;2023-03-18T14:14:53;11.07;;;5.00;;
40967;SDS011;57377;45.130;6.038;2023-03-18T14:22:41;16.60;;;5.55;;
40967;SDS011;57377;45.130;6.038;2023-03-18T14:27:46;12.65;;;6.10;;
40967;SDS011;57377;45.130;6.038;2023-03-18T14:35:57;18.67;;;7.88;;
40967;SDS011;57377;45.130;6.038;2023-03-18T14:41:00;14.27;;;6.43;;
40967;SDS011;57377;45.130;6.038;2023-03-18T14:46:02;15.37;;;6.93;;
40967;SDS011;57377;45.130;6.038;2023-03-18T14:48:32;15.85;;;7.13;;
40967;SDS011;57377;45.130;6.038;2023-03-18T14:55:59;15.60;;;7.30;;
40967;SDS011;57377;45.130;6.038;2023-03-18T14:58:26;21.13;;;6.68;;
40967;SDS011;57377;45.130;6.038;2023-03-18T15:00:53;16.67;;;6.95;;
40967;SDS011;57377;45.130;6.038;2023-03-18T15:03:22;16.88;;;7.47;;
40967;SDS011;57377;45.130;6.038;2023-03-18T15:05:53;17.95;;;7.68;;
40967;SDS011;57377;45.130;6.038;2023-03-18T15:08:26;22.67;;;7.65;;
40967;SDS011;57377;45.130;6.038;2023-03-18T15:10:53;18.05;;;7.18;;
40967;SDS011;57377;45.130;6.038;2023-03-18T15:13:21;17.23;;;6.90;;
40967;SDS011;57377;45.130;6.038;2023-03-18T15:15:48;16.98;;;7.47;;
40967;SDS011;57377;45.130;6.038;2023-03-18T15:18:19;16.80;;;8.07;;
40967;SDS011;57377;45.130;6.038;2023-03-18T15:20:56;13.02;;;6.40;;
40967;SDS011;57377;45.130;6.038;2023-03-18T15:23:37;15.85;;;7.50;;
40967;SDS011;57377;45.130;6.038;2023-03-18T15:26:06;16.48;;;7.18;;
40967;SDS011;57377;45.130;6.038;2023-03-18T15:28:44;17.17;;;7.00;;
40967;SDS011;57377;45.130;6.038;2023-03-18T15:31:11;19.10;;;7.13;;
40967;SDS011;57377;45.130;6.038;2023-03-18T15:33:36;20.80;;;7.72;;
40967;SDS011;57377;45.130;6.038;2023-03-18T15:36:10;19.73;;;8.65;;
40967;SDS011;57377;45.130;6.038;2023-03-18T15:38:44;15.30;;;6.95;;
40967;SDS011;57377;45.130;6.038;2023-03-18T15:41:14;22.88;;;9.57;;
40967;SDS011;57377;45.130;6.038;2023-03-18T15:43:46;17.90;;;7.70;;
40967;SDS011;57377;45.130;6.038;2023-03-18T15:48:55;14.68;;;7.18;;
40967;SDS011;57377;45.130;6.038;2023-03-18T15:51:23;15.75;;;7.43;;
40967;SDS011;57377;45.130;6.038;2023-03-18T15:53:55;16.27;;;7.10;;
40967;SDS011;57377;45.130;6.038;2023-03-18T15:56:26;16.77;;;7.22;;
40967;SDS011;57377;45.130;6.038;2023-03-18T15:59:13;19.52;;;7.45;;
40967;SDS011;57377;45.130;6.038;2023-03-18T16:01:42;17.87;;;7.53;;
40967;SDS011;57377;45.130;6.038;2023-03-18T16:04:09;25.52;;;9.25;;
40967;SDS011;57377;45.130;6.038;2023-03-18T16:06:37;19.00;;;7.80;;
40967;SDS011;57377;45.130;6.038;2023-03-18T16:09:12;19.70;;;8.15;;
40967;SDS011;57377;45.130;6.038;2023-03-18T16:11:39;16.05;;;7.70;;
40967;SDS011;57377;45.130;6.038;2023-03-18T16:14:05;19.27;;;7.97;;
40967;SDS011;57377;45.130;6.038;2023-03-18T16:16:30;20.27;;;7.38;;
40967;SDS011;57377;45.130;6.038;2023-03-18T16:18:57;16.90;;;8.07;;
40967;SDS011;57377;45.130;6.038;2023-03-18T16:21:23;17.13;;;7.28;;
40967;SDS011;57377;45.130;6.038;2023-03-18T16:23:49;20.17;;;7.75;;
40967;SDS011;57377;45.130;6.038;2023-03-18T16:26:15;20.20;;;8.25;;
40967;SDS011;57377;45.130;6.038;2023-03-18T16:28:42;19.13;;;7.68;;
40967;SDS011;57377;45.130;6.038;2023-03-18T16:31:09;19.38;;;7.85;;
40967;SDS011;57377;45.130;6.038;2023-03-18T16:33:36;17.40;;;7.23;;
40967;SDS011;57377;45.130;6.038;2023-03-18T16:36:02;15.73;;;7.80;;
40967;SDS011;57377;45.130;6.038;2023-03-18T16:40:56;20.58;;;7.93;;
40967;SDS011;57377;45.130;6.038;2023-03-18T16:43:25;17.00;;;7.90;;
40967;SDS011;57377;45.130;6.038;2023-03-18T16:45:53;20.45;;;8.25;;
40967;SDS011;57377;45.130;6.038;2023-03-18T16:48:23;20.10;;;7.38;;
40967;SDS011;57377;45.130;6.038;2023-03-18T16:55:51;21.50;;;7.53;;
40967;SDS011;57377;45.130;6.038;2023-03-18T16:58:26;17.90;;;7.38;;
40967;SDS011;57377;45.130;6.038;2023-03-18T17:00:54;16.20;;;7.68;;
40967;SDS011;57377;45.130;6.038;2023-03-18T17:03:20;17.27;;;8.03;;
40967;SDS011;57377;45.130;6.038;2023-03-18T17:05:47;21.25;;;8.35;;
40967;SDS011;57377;45.130;6.038;2023-03-18T17:08:18;20.55;;;8.50;;
40967;SDS011;57377;45.130;6.038;2023-03-18T17:10:44;18.75;;;7.85;;
40967;SDS011;57377;45.130;6.038;2023-03-18T17:13:22;20.70;;;8.27;;
40967;SDS011;57377;45.130;6.038;2023-03-18T17:15:50;18.70;;;8.10;;
40967;SDS011;57377;45.130;6.038;2023-03-18T17:18:16;19.55;;;8.82;;
40967;SDS011;57377;45.130;6.038;2023-03-18T17:20:47;22.30;;;8.88;;
40967;SDS011;57377;45.130;6.038;2023-03-18T17:23:23;26.58;;;8.77;;
40967;SDS011;57377;45.130;6.038;2023-03-18T17:25:54;21.13;;;8.68;;
40967;SDS011;57377;45.130;6.038;2023-03-18T17:28:33;18.40;;;8.05;;
40967;SDS011;57377;45.130;6.038;2023-03-18T17:31:02;16.52;;;7.57;;
40967;SDS011;57377;45.130;6.038;2023-03-18T17:33:29;19.60;;;7.95;;
40967;SDS011;57377;45.130;6.038;2023-03-18T17:35:56;19.95;;;8.45;;